sensor_id;sensor_type;location;lat;lon;timestamp;P1;durP1;ratioP1;P2;durP2;ratioP2
74465;SDS011;62916;50.044;15.938;2023-04-12T00:01:31;2.40;;;1.50;;
74465;SDS011;62916;50.044;15.938;2023-04-12T00:04:02;2.90;;;1.40;;
74465;SDS011;62916;50.044;15.938;2023-04-12T00:06:33;3.70;;;1.70;;
74465;SDS011;62916;50.044;15.938;2023-04-12T00:09:06;2.20;;;1.40;;
74465;SDS011;62916;50.044;15.938;2023-04-12T00:11:37;2.50;;;1.80;;
74465;SDS011;62916;50.044;15.938;2023-04-12T00:14:08;2.40;;;1.60;;
74465;SDS011;62916;50.044;15.938;2023-04-12T00:16:39;2.40;;;1.40;;
74465;SDS011;62916;50.044;15.938;2023-04-12T00:19:10;2.20;;;1.40;;
74465;SDS011;62916;50.044;15.938;2023-04-12T00:21:40;2.20;;;1.80;;
74465;SDS011;62916;50.044;15.938;2023-04-12T00:24:11;1.90;;;1.50;;
74465;SDS011;62916;50.044;15.938;2023-04-12T00:26:42;2.30;;;1.40;;
74465;SDS011;62916;50.044;15.938;2023-04-12T00:29:14;2.10;;;1.30;;
74465;SDS011;62916;50.044;15.938;2023-04-12T00:31:46;2.90;;;1.90;;
74465;SDS011;62916;50.044;15.938;2023-04-12T00:34:16;3.10;;;1.90;;
74465;SDS011;62916;50.044;15.938;2023-04-12T00:36:47;2.10;;;1.40;;
74465;SDS011;62916;50.044;15.938;2023-04-12T00:39:18;2.00;;;1.30;;
74465;SDS011;62916;50.044;15.938;2023-04-12T00:41:49;2.00;;;1.30;;
74465;SDS011;62916;50.044;15.938;2023-04-12T00:44:20;1.80;;;1.40;;
74465;SDS011;62916;50.044;15.938;2023-04-12T00:46:51;2.10;;;1.40;;
74465;SDS011;62916;50.044;15.938;2023-04-12T00:49:22;2.50;;;1.60;;
74465;SDS011;62916;50.044;15.938;2023-04-12T00:51:59;1.60;;;1.20;;
74465;SDS011;62916;50.044;15.938;2023-04-12T00:54:32;2.40;;;1.40;;
74465;SDS011;62916;50.044;15.938;2023-04-12T00:57:03;1.70;;;1.20;;
74465;SDS011;62916;50.044;15.938;2023-04-12T00:59:34;2.70;;;1.70;;
74465;SDS011;62916;50.044;15.938;2023-04-12T01:02:05;2.40;;;1.40;;
74465;SDS011;62916;50.044;15.938;2023-04-12T01:04:37;1.90;;;1.40;;
74465;SDS011;62916;50.044;15.938;2023-04-12T01:09:47;2.00;;;1.20;;
74465;SDS011;62916;50.044;15.938;2023-04-12T01:12:27;2.60;;;1.50;;
74465;SDS011;62916;50.044;15.938;2023-04-12T01:15:10;2.00;;;1.80;;
74465;SDS011;62916;50.044;15.938;2023-04-12T01:17:45;2.00;;;1.50;;
74465;SDS011;62916;50.044;15.938;2023-04-12T01:20:25;2.10;;;1.30;;
74465;SDS011;62916;50.044;15.938;2023-04-12T01:23:04;2.00;;;1.40;;
74465;SDS011;62916;50.044;15.938;2023-04-12T01:25:52;1.60;;;1.20;;
74465;SDS011;62916;50.044;15.938;2023-04-12T01:28:37;1.80;;;1.20;;
74465;SDS011;62916;50.044;15.938;2023-04-12T01:31:10;1.40;;;1.30;;
74465;SDS011;62916;50.044;15.938;2023-04-12T01:33:43;2.70;;;1.50;;
74465;SDS011;62916;50.044;15.938;2023-04-12T01:36:15;2.30;;;1.50;;
74465;SDS011;62916;50.044;15.938;2023-04-12T01:38:49;2.10;;;1.20;;
74465;SDS011;62916;50.044;15.938;2023-04-12T01:41:22;2.10;;;1.20;;
74465;SDS011;62916;50.044;15.938;2023-04-12T01:43:53;1.90;;;1.30;;
74465;SDS011;62916;50.044;15.938;2023-04-12T01:46:24;2.00;;;1.30;;
74465;SDS011;62916;50.044;15.938;2023-04-12T01:48:56;2.20;;;1.20;;
74465;SDS011;62916;50.044;15.938;2023-04-12T01:51:30;1.40;;;1.20;;
74465;SDS011;62916;50.044;15.938;2023-04-12T01:54:07;2.20;;;1.60;;
74465;SDS011;62916;50.044;15.938;2023-04-12T01:56:42;2.40;;;1.40;;
74465;SDS011;62916;50.044;15.938;2023-04-12T01:59:17;2.20;;;1.20;;
74465;SDS011;62916;50.044;15.938;2023-04-12T02:01:50;1.70;;;1.50;;
74465;SDS011;62916;50.044;15.938;2023-04-12T02:04:24;1.30;;;1.10;;
74465;SDS011;62916;50.044;15.938;2023-04-12T02:06:56;2.50;;;1.30;;
74465;SDS011;62916;50.044;15.938;2023-04-12T02:09:27;2.00;;;1.10;;
74465;SDS011;62916;50.044;15.938;2023-04-12T02:12:01;1.60;;;1.10;;
74465;SDS011;62916;50.044;15.938;2023-04-12T02:14:33;1.20;;;1.00;;
74465;SDS011;62916;50.044;15.938;2023-04-12T02:17:04;2.10;;;1.40;;
74465;SDS011;62916;50.044;15.938;2023-04-12T02:19:35;1.80;;;1.60;;
74465;SDS011;62916;50.044;15.938;2023-04-12T02:22:06;3.00;;;1.30;;
74465;SDS011;62916;50.044;15.938;2023-04-12T02:24:37;3.40;;;1.60;;
74465;SDS011;62916;50.044;15.938;2023-04-12T02:27:08;1.60;;;1.30;;
74465;SDS011;62916;50.044;15.938;2023-04-12T02:29:39;1.90;;;1.30;;
74465;SDS011;62916;50.044;15.938;2023-04-12T02:32:10;1.90;;;1.20;;
74465;SDS011;62916;50.044;15.938;2023-04-12T02:34:42;2.10;;;1.10;;
74465;SDS011;62916;50.044;15.938;2023-04-12T02:37:18;2.00;;;1.40;;
74465;SDS011;62916;50.044;15.938;2023-04-12T02:39:50;2.00;;;1.80;;
74465;SDS011;62916;50.044;15.938;2023-04-12T02:42:23;3.90;;;1.20;;
74465;SDS011;62916;50.044;15.938;2023-04-12T02:44:55;2.10;;;1.30;;
74465;SDS011;62916;50.044;15.938;2023-04-12T02:47:26;1.70;;;1.40;;
74465;SDS011;62916;50.044;15.938;2023-04-12T02:49:57;2.70;;;1.10;;
74465;SDS011;62916;50.044;15.938;2023-04-12T02:52:28;1.30;;;1.00;;
74465;SDS011;62916;50.044;15.938;2023-04-12T02:54:59;3.00;;;1.20;;
74465;SDS011;62916;50.044;15.938;2023-04-12T02:57:31;2.10;;;1.50;;
74465;SDS011;62916;50.044;15.938;2023-04-12T03:00:02;1.50;;;1.00;;
74465;SDS011;62916;50.044;15.938;2023-04-12T03:02:38;2.60;;;1.20;;
74465;SDS011;62916;50.044;15.938;2023-04-12T03:05:09;2.30;;;1.50;;
74465;SDS011;62916;50.044;15.938;2023-04-12T03:07:41;2.10;;;1.20;;
74465;SDS011;62916;50.044;15.938;2023-04-12T03:10:13;1.60;;;1.30;;
74465;SDS011;62916;50.044;15.938;2023-04-12T03:12:44;1.60;;;1.20;;
74465;SDS011;62916;50.044;15.938;2023-04-12T03:15:14;1.50;;;1.10;;
74465;SDS011;62916;50.044;15.938;2023-04-12T03:17:46;1.70;;;1.60;;
74465;SDS011;62916;50.044;15.938;2023-04-12T03:20:17;1.80;;;0.90;;
74465;SDS011;62916;50.044;15.938;2023-04-12T03:22:48;1.90;;;1.30;;
74465;SDS011;62916;50.044;15.938;2023-04-12T03:25:18;2.60;;;1.40;;
74465;SDS011;62916;50.044;15.938;2023-04-12T03:27:49;1.80;;;1.20;;
74465;SDS011;62916;50.044;15.938;2023-04-12T03:30:20;1.80;;;1.30;;
74465;SDS011;62916;50.044;15.938;2023-04-12T03:32:51;2.50;;;1.20;;
74465;SDS011;62916;50.044;15.938;2023-04-12T03:35:22;2.20;;;0.90;;
74465;SDS011;62916;50.044;15.938;2023-04-12T03:37:53;1.90;;;1.10;;
74465;SDS011;62916;50.044;15.938;2023-04-12T03:40:24;2.10;;;1.00;;
74465;SDS011;62916;50.044;15.938;2023-04-12T03:42:57;1.90;;;1.40;;
74465;SDS011;62916;50.044;15.938;2023-04-12T03:45:29;2.10;;;1.40;;
74465;SDS011;62916;50.044;15.938;2023-04-12T03:48:00;3.40;;;1.40;;
74465;SDS011;62916;50.044;15.938;2023-04-12T03:50:31;3.10;;;1.70;;
74465;SDS011;62916;50.044;15.938;2023-04-12T03:53:11;2.50;;;2.00;;
74465;SDS011;62916;50.044;15.938;2023-04-12T03:55:42;3.00;;;1.40;;
74465;SDS011;62916;50.044;15.938;2023-04-12T03:58:15;1.80;;;1.60;;
74465;SDS011;62916;50.044;15.938;2023-04-12T04:00:46;1.80;;;1.30;;
74465;SDS011;62916;50.044;15.938;2023-04-12T04:03:17;2.80;;;1.30;;
74465;SDS011;62916;50.044;15.938;2023-04-12T04:05:53;2.20;;;1.10;;
74465;SDS011;62916;50.044;15.938;2023-04-12T04:08:24;6.60;;;1.80;;
74465;SDS011;62916;50.044;15.938;2023-04-12T04:10:56;9.40;;;2.70;;
74465;SDS011;62916;50.044;15.938;2023-04-12T04:13:28;13.10;;;2.50;;
74465;SDS011;62916;50.044;15.938;2023-04-12T04:16:00;13.80;;;2.80;;
74465;SDS011;62916;50.044;15.938;2023-04-12T04:18:33;11.30;;;2.40;;
74465;SDS011;62916;50.044;15.938;2023-04-12T04:21:04;22.10;;;2.70;;
74465;SDS011;62916;50.044;15.938;2023-04-12T04:23:35;12.60;;;3.40;;
74465;SDS011;62916;50.044;15.938;2023-04-12T04:26:07;15.60;;;2.70;;
74465;SDS011;62916;50.044;15.938;2023-04-12T04:28:38;11.70;;;3.10;;
74465;SDS011;62916;50.044;15.938;2023-04-12T04:31:11;12.90;;;2.40;;
74465;SDS011;62916;50.044;15.938;2023-04-12T04:33:44;15.50;;;2.60;;
74465;SDS011;62916;50.044;15.938;2023-04-12T04:36:15;14.90;;;3.00;;
74465;SDS011;62916;50.044;15.938;2023-04-12T04:38:46;12.60;;;2.60;;
74465;SDS011;62916;50.044;15.938;2023-04-12T04:41:17;15.00;;;3.30;;
74465;SDS011;62916;50.044;15.938;2023-04-12T04:43:49;11.70;;;2.20;;
74465;SDS011;62916;50.044;15.938;2023-04-12T04:46:22;9.50;;;2.60;;
74465;SDS011;62916;50.044;15.938;2023-04-12T04:48:52;12.70;;;2.30;;
74465;SDS011;62916;50.044;15.938;2023-04-12T04:51:25;11.90;;;2.40;;
74465;SDS011;62916;50.044;15.938;2023-04-12T04:53:56;10.20;;;2.40;;
74465;SDS011;62916;50.044;15.938;2023-04-12T04:56:28;22.90;;;2.90;;
74465;SDS011;62916;50.044;15.938;2023-04-12T04:59:00;5.00;;;1.90;;
74465;SDS011;62916;50.044;15.938;2023-04-12T05:01:31;8.90;;;2.00;;
74465;SDS011;62916;50.044;15.938;2023-04-12T05:04:03;8.40;;;2.10;;
74465;SDS011;62916;50.044;15.938;2023-04-12T05:06:34;10.90;;;2.70;;
74465;SDS011;62916;50.044;15.938;2023-04-12T05:09:05;10.10;;;2.30;;
74465;SDS011;62916;50.044;15.938;2023-04-12T05:11:36;7.40;;;1.80;;
74465;SDS011;62916;50.044;15.938;2023-04-12T05:14:07;6.00;;;1.80;;
74465;SDS011;62916;50.044;15.938;2023-04-12T05:16:39;11.90;;;2.40;;
74465;SDS011;62916;50.044;15.938;2023-04-12T05:19:10;9.60;;;2.30;;
74465;SDS011;62916;50.044;15.938;2023-04-12T05:21:41;10.20;;;2.00;;
74465;SDS011;62916;50.044;15.938;2023-04-12T05:24:13;10.50;;;1.90;;
74465;SDS011;62916;50.044;15.938;2023-04-12T05:26:44;8.80;;;2.00;;
74465;SDS011;62916;50.044;15.938;2023-04-12T05:29:15;8.40;;;2.40;;
74465;SDS011;62916;50.044;15.938;2023-04-12T05:31:45;7.80;;;2.20;;
74465;SDS011;62916;50.044;15.938;2023-04-12T05:34:16;7.60;;;2.20;;
74465;SDS011;62916;50.044;15.938;2023-04-12T05:36:47;6.30;;;1.80;;
74465;SDS011;62916;50.044;15.938;2023-04-12T05:39:18;4.50;;;2.20;;
74465;SDS011;62916;50.044;15.938;2023-04-12T05:41:50;8.10;;;2.00;;
74465;SDS011;62916;50.044;15.938;2023-04-12T05:44:21;6.50;;;1.90;;
74465;SDS011;62916;50.044;15.938;2023-04-12T05:46:51;8.10;;;2.20;;
74465;SDS011;62916;50.044;15.938;2023-04-12T05:49:22;6.10;;;1.90;;
74465;SDS011;62916;50.044;15.938;2023-04-12T05:51:56;6.50;;;1.80;;
74465;SDS011;62916;50.044;15.938;2023-04-12T05:54:27;5.60;;;1.60;;
74465;SDS011;62916;50.044;15.938;2023-04-12T05:56:58;3.40;;;1.80;;
74465;SDS011;62916;50.044;15.938;2023-04-12T05:59:29;5.40;;;1.60;;
74465;SDS011;62916;50.044;15.938;2023-04-12T06:02:00;6.30;;;1.90;;
74465;SDS011;62916;50.044;15.938;2023-04-12T06:04:31;5.60;;;2.50;;
74465;SDS011;62916;50.044;15.938;2023-04-12T06:07:09;6.30;;;1.80;;
74465;SDS011;62916;50.044;15.938;2023-04-12T06:09:40;4.70;;;1.60;;
74465;SDS011;62916;50.044;15.938;2023-04-12T06:12:10;3.50;;;1.40;;
74465;SDS011;62916;50.044;15.938;2023-04-12T06:14:42;7.40;;;2.20;;
74465;SDS011;62916;50.044;15.938;2023-04-12T06:17:12;5.90;;;2.20;;
74465;SDS011;62916;50.044;15.938;2023-04-12T06:19:43;5.70;;;1.30;;
74465;SDS011;62916;50.044;15.938;2023-04-12T06:22:15;6.20;;;1.50;;
74465;SDS011;62916;50.044;15.938;2023-04-12T06:24:46;5.80;;;1.50;;
74465;SDS011;62916;50.044;15.938;2023-04-12T06:27:17;4.30;;;1.60;;
74465;SDS011;62916;50.044;15.938;2023-04-12T06:29:49;5.00;;;1.70;;
74465;SDS011;62916;50.044;15.938;2023-04-12T06:32:20;5.00;;;1.70;;
74465;SDS011;62916;50.044;15.938;2023-04-12T06:34:51;4.80;;;1.80;;
74465;SDS011;62916;50.044;15.938;2023-04-12T06:37:23;4.00;;;1.50;;
74465;SDS011;62916;50.044;15.938;2023-04-12T06:39:54;4.70;;;1.50;;
74465;SDS011;62916;50.044;15.938;2023-04-12T06:42:24;3.90;;;1.80;;
74465;SDS011;62916;50.044;15.938;2023-04-12T06:44:55;3.40;;;1.10;;
74465;SDS011;62916;50.044;15.938;2023-04-12T06:47:26;3.40;;;1.60;;
74465;SDS011;62916;50.044;15.938;2023-04-12T06:49:57;5.60;;;1.60;;
74465;SDS011;62916;50.044;15.938;2023-04-12T06:52:29;3.20;;;1.70;;
74465;SDS011;62916;50.044;15.938;2023-04-12T06:55:00;3.40;;;1.60;;
74465;SDS011;62916;50.044;15.938;2023-04-12T06:57:31;3.20;;;1.20;;
74465;SDS011;62916;50.044;15.938;2023-04-12T07:00:02;4.00;;;1.60;;
74465;SDS011;62916;50.044;15.938;2023-04-12T07:02:34;2.90;;;1.40;;
74465;SDS011;62916;50.044;15.938;2023-04-12T07:05:07;3.60;;;1.40;;
74465;SDS011;62916;50.044;15.938;2023-04-12T07:07:37;2.90;;;1.60;;
74465;SDS011;62916;50.044;15.938;2023-04-12T07:10:09;4.90;;;1.40;;
74465;SDS011;62916;50.044;15.938;2023-04-12T07:12:39;4.30;;;1.80;;
74465;SDS011;62916;50.044;15.938;2023-04-12T07:15:10;2.50;;;1.40;;
74465;SDS011;62916;50.044;15.938;2023-04-12T07:17:41;3.30;;;1.60;;
74465;SDS011;62916;50.044;15.938;2023-04-12T07:20:12;2.70;;;1.50;;
74465;SDS011;62916;50.044;15.938;2023-04-12T07:22:44;3.00;;;1.50;;
74465;SDS011;62916;50.044;15.938;2023-04-12T07:25:15;3.20;;;1.30;;
74465;SDS011;62916;50.044;15.938;2023-04-12T07:27:46;3.60;;;1.30;;
74465;SDS011;62916;50.044;15.938;2023-04-12T07:30:18;2.90;;;1.20;;
74465;SDS011;62916;50.044;15.938;2023-04-12T07:32:49;3.40;;;1.60;;
74465;SDS011;62916;50.044;15.938;2023-04-12T07:35:25;3.40;;;1.40;;
74465;SDS011;62916;50.044;15.938;2023-04-12T07:37:56;2.30;;;1.50;;
74465;SDS011;62916;50.044;15.938;2023-04-12T07:40:26;4.80;;;1.50;;
74465;SDS011;62916;50.044;15.938;2023-04-12T07:42:57;2.90;;;1.30;;
74465;SDS011;62916;50.044;15.938;2023-04-12T07:45:28;4.40;;;1.60;;
74465;SDS011;62916;50.044;15.938;2023-04-12T07:47:59;2.40;;;1.10;;
74465;SDS011;62916;50.044;15.938;2023-04-12T07:50:30;3.50;;;1.40;;
74465;SDS011;62916;50.044;15.938;2023-04-12T07:55:49;2.30;;;1.40;;
74465;SDS011;62916;50.044;15.938;2023-04-12T07:58:21;3.30;;;1.40;;
74465;SDS011;62916;50.044;15.938;2023-04-12T08:00:53;2.40;;;1.20;;
74465;SDS011;62916;50.044;15.938;2023-04-12T08:03:28;4.10;;;1.50;;
74465;SDS011;62916;50.044;15.938;2023-04-12T08:06:00;1.40;;;1.20;;
74465;SDS011;62916;50.044;15.938;2023-04-12T08:08:32;1.80;;;1.20;;
74465;SDS011;62916;50.044;15.938;2023-04-12T08:11:03;4.30;;;1.10;;
74465;SDS011;62916;50.044;15.938;2023-04-12T08:13:34;2.80;;;1.30;;
74465;SDS011;62916;50.044;15.938;2023-04-12T08:16:06;2.70;;;1.20;;
74465;SDS011;62916;50.044;15.938;2023-04-12T08:21:08;1.80;;;1.20;;
74465;SDS011;62916;50.044;15.938;2023-04-12T08:23:39;3.80;;;1.30;;
74465;SDS011;62916;50.044;15.938;2023-04-12T08:26:10;2.50;;;1.10;;
74465;SDS011;62916;50.044;15.938;2023-04-12T08:28:41;1.60;;;0.90;;
74465;SDS011;62916;50.044;15.938;2023-04-12T08:31:12;3.40;;;1.10;;
74465;SDS011;62916;50.044;15.938;2023-04-12T08:33:43;2.00;;;1.20;;
74465;SDS011;62916;50.044;15.938;2023-04-12T08:36:14;1.60;;;1.10;;
74465;SDS011;62916;50.044;15.938;2023-04-12T08:38:45;1.80;;;1.10;;
74465;SDS011;62916;50.044;15.938;2023-04-12T08:41:19;2.90;;;1.10;;
74465;SDS011;62916;50.044;15.938;2023-04-12T08:43:50;1.80;;;1.00;;
74465;SDS011;62916;50.044;15.938;2023-04-12T08:46:22;2.60;;;1.70;;
74465;SDS011;62916;50.044;15.938;2023-04-12T08:48:53;3.50;;;1.10;;
74465;SDS011;62916;50.044;15.938;2023-04-12T08:51:25;3.70;;;1.60;;
74465;SDS011;62916;50.044;15.938;2023-04-12T08:53:56;1.70;;;1.00;;
74465;SDS011;62916;50.044;15.938;2023-04-12T08:56:27;2.20;;;1.00;;
74465;SDS011;62916;50.044;15.938;2023-04-12T08:58:59;3.40;;;1.50;;
74465;SDS011;62916;50.044;15.938;2023-04-12T09:01:30;3.00;;;1.30;;
74465;SDS011;62916;50.044;15.938;2023-04-12T09:04:04;1.30;;;1.10;;
74465;SDS011;62916;50.044;15.938;2023-04-12T09:06:36;1.30;;;1.00;;
74465;SDS011;62916;50.044;15.938;2023-04-12T09:09:08;1.80;;;1.40;;
74465;SDS011;62916;50.044;15.938;2023-04-12T09:11:39;1.90;;;1.10;;
74465;SDS011;62916;50.044;15.938;2023-04-12T09:14:22;1.80;;;1.30;;
74465;SDS011;62916;50.044;15.938;2023-04-12T09:16:54;2.30;;;1.10;;
74465;SDS011;62916;50.044;15.938;2023-04-12T09:19:31;1.40;;;1.30;;
74465;SDS011;62916;50.044;15.938;2023-04-12T09:22:03;2.00;;;1.00;;
74465;SDS011;62916;50.044;15.938;2023-04-12T09:24:40;1.80;;;1.10;;
74465;SDS011;62916;50.044;15.938;2023-04-12T09:27:17;2.90;;;1.10;;
74465;SDS011;62916;50.044;15.938;2023-04-12T09:29:48;2.10;;;1.40;;
74465;SDS011;62916;50.044;15.938;2023-04-12T09:32:24;2.40;;;1.10;;
74465;SDS011;62916;50.044;15.938;2023-04-12T09:34:55;2.40;;;1.10;;
74465;SDS011;62916;50.044;15.938;2023-04-12T09:37:29;1.80;;;1.40;;
74465;SDS011;62916;50.044;15.938;2023-04-12T09:40:00;3.70;;;1.10;;
74465;SDS011;62916;50.044;15.938;2023-04-12T09:42:33;1.30;;;1.00;;
74465;SDS011;62916;50.044;15.938;2023-04-12T09:47:51;2.40;;;1.30;;
74465;SDS011;62916;50.044;15.938;2023-04-12T09:50:22;3.00;;;1.40;;
74465;SDS011;62916;50.044;15.938;2023-04-12T09:52:55;3.50;;;1.20;;
74465;SDS011;62916;50.044;15.938;2023-04-12T09:55:27;2.90;;;2.10;;
74465;SDS011;62916;50.044;15.938;2023-04-12T09:58:01;1.80;;;1.00;;
74465;SDS011;62916;50.044;15.938;2023-04-12T10:00:33;3.50;;;1.20;;
74465;SDS011;62916;50.044;15.938;2023-04-12T10:03:04;2.20;;;0.80;;
74465;SDS011;62916;50.044;15.938;2023-04-12T10:05:35;2.20;;;1.20;;
74465;SDS011;62916;50.044;15.938;2023-04-12T10:08:08;1.70;;;1.10;;
74465;SDS011;62916;50.044;15.938;2023-04-12T10:10:41;1.70;;;0.80;;
74465;SDS011;62916;50.044;15.938;2023-04-12T10:13:14;1.80;;;1.20;;
74465;SDS011;62916;50.044;15.938;2023-04-12T10:15:45;2.60;;;1.50;;
74465;SDS011;62916;50.044;15.938;2023-04-12T10:18:19;2.30;;;1.10;;
74465;SDS011;62916;50.044;15.938;2023-04-12T10:20:53;1.80;;;1.00;;
74465;SDS011;62916;50.044;15.938;2023-04-12T10:23:26;1.90;;;1.10;;
74465;SDS011;62916;50.044;15.938;2023-04-12T10:25:57;2.00;;;1.30;;
74465;SDS011;62916;50.044;15.938;2023-04-12T10:28:32;1.80;;;1.30;;
74465;SDS011;62916;50.044;15.938;2023-04-12T10:31:14;1.70;;;1.30;;
74465;SDS011;62916;50.044;15.938;2023-04-12T10:33:57;1.80;;;1.40;;
74465;SDS011;62916;50.044;15.938;2023-04-12T10:39:38;1.50;;;1.00;;
74465;SDS011;62916;50.044;15.938;2023-04-12T10:42:16;1.10;;;0.90;;
74465;SDS011;62916;50.044;15.938;2023-04-12T10:44:50;1.30;;;1.00;;
74465;SDS011;62916;50.044;15.938;2023-04-12T10:50:29;1.90;;;1.50;;
74465;SDS011;62916;50.044;15.938;2023-04-12T10:55:53;1.60;;;1.10;;
74465;SDS011;62916;50.044;15.938;2023-04-12T11:01:28;2.50;;;1.10;;
74465;SDS011;62916;50.044;15.938;2023-04-12T11:06:44;2.50;;;0.90;;
74465;SDS011;62916;50.044;15.938;2023-04-12T11:09:22;2.20;;;1.10;;
74465;SDS011;62916;50.044;15.938;2023-04-12T11:11:58;1.60;;;0.90;;
74465;SDS011;62916;50.044;15.938;2023-04-12T11:14:44;1.60;;;1.00;;
74465;SDS011;62916;50.044;15.938;2023-04-12T11:17:20;1.90;;;0.80;;
74465;SDS011;62916;50.044;15.938;2023-04-12T11:19:55;1.60;;;0.90;;
74465;SDS011;62916;50.044;15.938;2023-04-12T11:22:29;1.10;;;0.70;;
74465;SDS011;62916;50.044;15.938;2023-04-12T11:25:01;2.00;;;1.00;;
74465;SDS011;62916;50.044;15.938;2023-04-12T11:27:32;1.30;;;0.80;;
74465;SDS011;62916;50.044;15.938;2023-04-12T11:30:06;1.20;;;0.90;;
74465;SDS011;62916;50.044;15.938;2023-04-12T11:32:37;1.80;;;1.20;;
74465;SDS011;62916;50.044;15.938;2023-04-12T11:35:09;2.20;;;0.70;;
74465;SDS011;62916;50.044;15.938;2023-04-12T11:37:42;2.00;;;1.00;;
74465;SDS011;62916;50.044;15.938;2023-04-12T11:40:13;1.70;;;1.30;;
74465;SDS011;62916;50.044;15.938;2023-04-12T11:42:44;1.20;;;0.80;;
74465;SDS011;62916;50.044;15.938;2023-04-12T11:45:19;1.20;;;0.70;;
74465;SDS011;62916;50.044;15.938;2023-04-12T11:47:49;1.80;;;0.90;;
74465;SDS011;62916;50.044;15.938;2023-04-12T11:50:28;1.40;;;0.70;;
74465;SDS011;62916;50.044;15.938;2023-04-12T11:53:11;2.40;;;0.90;;
74465;SDS011;62916;50.044;15.938;2023-04-12T11:55:47;1.40;;;0.70;;
74465;SDS011;62916;50.044;15.938;2023-04-12T11:58:20;1.70;;;0.70;;
74465;SDS011;62916;50.044;15.938;2023-04-12T12:00:54;1.60;;;0.90;;
74465;SDS011;62916;50.044;15.938;2023-04-12T12:03:27;1.10;;;0.80;;
74465;SDS011;62916;50.044;15.938;2023-04-12T12:05:58;1.40;;;0.70;;
74465;SDS011;62916;50.044;15.938;2023-04-12T12:08:30;1.30;;;0.80;;
74465;SDS011;62916;50.044;15.938;2023-04-12T12:11:01;1.60;;;0.80;;
74465;SDS011;62916;50.044;15.938;2023-04-12T12:13:45;1.30;;;0.80;;
74465;SDS011;62916;50.044;15.938;2023-04-12T12:16:17;0.70;;;0.60;;
74465;SDS011;62916;50.044;15.938;2023-04-12T12:18:52;0.90;;;0.70;;
74465;SDS011;62916;50.044;15.938;2023-04-12T12:21:24;1.30;;;0.70;;
74465;SDS011;62916;50.044;15.938;2023-04-12T12:23:55;1.00;;;0.50;;
74465;SDS011;62916;50.044;15.938;2023-04-12T12:26:27;1.50;;;0.80;;
74465;SDS011;62916;50.044;15.938;2023-04-12T12:28:58;1.60;;;0.60;;
74465;SDS011;62916;50.044;15.938;2023-04-12T12:31:29;1.30;;;0.80;;
74465;SDS011;62916;50.044;15.938;2023-04-12T12:34:00;2.10;;;0.90;;
74465;SDS011;62916;50.044;15.938;2023-04-12T12:36:36;1.30;;;0.80;;
74465;SDS011;62916;50.044;15.938;2023-04-12T12:39:07;1.00;;;0.80;;
74465;SDS011;62916;50.044;15.938;2023-04-12T12:41:39;1.60;;;0.90;;
74465;SDS011;62916;50.044;15.938;2023-04-12T12:44:10;1.20;;;0.60;;
74465;SDS011;62916;50.044;15.938;2023-04-12T12:46:41;1.80;;;0.80;;
74465;SDS011;62916;50.044;15.938;2023-04-12T12:49:23;0.90;;;0.70;;
74465;SDS011;62916;50.044;15.938;2023-04-12T12:51:54;1.00;;;0.80;;
74465;SDS011;62916;50.044;15.938;2023-04-12T12:54:25;1.70;;;0.90;;
74465;SDS011;62916;50.044;15.938;2023-04-12T12:57:08;0.90;;;0.70;;
74465;SDS011;62916;50.044;15.938;2023-04-12T12:59:39;0.60;;;0.50;;
74465;SDS011;62916;50.044;15.938;2023-04-12T13:02:10;1.10;;;0.90;;
74465;SDS011;62916;50.044;15.938;2023-04-12T13:04:42;1.40;;;0.60;;
74465;SDS011;62916;50.044;15.938;2023-04-12T13:07:14;1.20;;;1.10;;
74465;SDS011;62916;50.044;15.938;2023-04-12T13:09:45;1.10;;;0.80;;
74465;SDS011;62916;50.044;15.938;2023-04-12T13:12:16;1.10;;;0.70;;
74465;SDS011;62916;50.044;15.938;2023-04-12T13:14:48;1.10;;;0.70;;
74465;SDS011;62916;50.044;15.938;2023-04-12T13:17:32;1.00;;;0.70;;
74465;SDS011;62916;50.044;15.938;2023-04-12T13:20:04;1.20;;;0.60;;
74465;SDS011;62916;50.044;15.938;2023-04-12T13:22:36;1.30;;;0.70;;
74465;SDS011;62916;50.044;15.938;2023-04-12T13:25:08;1.20;;;0.70;;
74465;SDS011;62916;50.044;15.938;2023-04-12T13:27:39;1.10;;;0.70;;
74465;SDS011;62916;50.044;15.938;2023-04-12T13:30:10;0.90;;;0.80;;
74465;SDS011;62916;50.044;15.938;2023-04-12T13:32:41;1.20;;;0.70;;
74465;SDS011;62916;50.044;15.938;2023-04-12T13:35:12;1.30;;;0.80;;
74465;SDS011;62916;50.044;15.938;2023-04-12T13:37:43;1.20;;;0.60;;
74465;SDS011;62916;50.044;15.938;2023-04-12T13:40:14;1.20;;;0.60;;
74465;SDS011;62916;50.044;15.938;2023-04-12T13:42:45;1.30;;;0.70;;
74465;SDS011;62916;50.044;15.938;2023-04-12T13:45:16;1.20;;;0.50;;
74465;SDS011;62916;50.044;15.938;2023-04-12T13:47:47;1.10;;;0.80;;
74465;SDS011;62916;50.044;15.938;2023-04-12T13:50:18;0.90;;;0.60;;
74465;SDS011;62916;50.044;15.938;2023-04-12T13:52:49;0.90;;;0.80;;
74465;SDS011;62916;50.044;15.938;2023-04-12T13:55:20;1.10;;;0.70;;
74465;SDS011;62916;50.044;15.938;2023-04-12T13:57:51;0.60;;;0.60;;
74465;SDS011;62916;50.044;15.938;2023-04-12T14:00:22;1.40;;;0.70;;
74465;SDS011;62916;50.044;15.938;2023-04-12T14:02:54;0.80;;;0.70;;
74465;SDS011;62916;50.044;15.938;2023-04-12T14:05:25;1.00;;;0.60;;
74465;SDS011;62916;50.044;15.938;2023-04-12T14:07:56;0.70;;;0.60;;
74465;SDS011;62916;50.044;15.938;2023-04-12T14:10:27;1.00;;;0.90;;
74465;SDS011;62916;50.044;15.938;2023-04-12T14:12:58;1.10;;;0.80;;
74465;SDS011;62916;50.044;15.938;2023-04-12T14:15:28;0.80;;;0.80;;
74465;SDS011;62916;50.044;15.938;2023-04-12T14:17:59;1.10;;;0.70;;
74465;SDS011;62916;50.044;15.938;2023-04-12T14:20:30;1.20;;;0.80;;
74465;SDS011;62916;50.044;15.938;2023-04-12T14:23:01;1.20;;;0.60;;
74465;SDS011;62916;50.044;15.938;2023-04-12T14:25:36;0.90;;;0.80;;
74465;SDS011;62916;50.044;15.938;2023-04-12T14:28:07;0.70;;;0.70;;
74465;SDS011;62916;50.044;15.938;2023-04-12T14:30:43;0.50;;;0.40;;
74465;SDS011;62916;50.044;15.938;2023-04-12T14:33:16;0.70;;;0.60;;
74465;SDS011;62916;50.044;15.938;2023-04-12T14:35:47;0.80;;;0.60;;
74465;SDS011;62916;50.044;15.938;2023-04-12T14:38:18;1.50;;;0.60;;
74465;SDS011;62916;50.044;15.938;2023-04-12T14:40:50;0.80;;;0.80;;
74465;SDS011;62916;50.044;15.938;2023-04-12T14:43:21;0.80;;;0.70;;
74465;SDS011;62916;50.044;15.938;2023-04-12T14:45:52;0.80;;;0.50;;
74465;SDS011;62916;50.044;15.938;2023-04-12T14:48:23;0.60;;;0.50;;
74465;SDS011;62916;50.044;15.938;2023-04-12T14:50:54;1.00;;;0.60;;
74465;SDS011;62916;50.044;15.938;2023-04-12T14:53:25;0.60;;;0.50;;
74465;SDS011;62916;50.044;15.938;2023-04-12T14:55:56;1.30;;;0.70;;
74465;SDS011;62916;50.044;15.938;2023-04-12T14:58:29;0.80;;;0.50;;
74465;SDS011;62916;50.044;15.938;2023-04-12T15:01:01;0.80;;;0.70;;
74465;SDS011;62916;50.044;15.938;2023-04-12T15:03:32;1.20;;;0.80;;
74465;SDS011;62916;50.044;15.938;2023-04-12T15:06:03;0.90;;;0.60;;
74465;SDS011;62916;50.044;15.938;2023-04-12T15:08:35;1.10;;;0.60;;
74465;SDS011;62916;50.044;15.938;2023-04-12T15:11:10;0.90;;;0.80;;
74465;SDS011;62916;50.044;15.938;2023-04-12T15:13:41;0.90;;;0.80;;
74465;SDS011;62916;50.044;15.938;2023-04-12T15:16:12;0.70;;;0.60;;
74465;SDS011;62916;50.044;15.938;2023-04-12T15:18:43;0.60;;;0.60;;
74465;SDS011;62916;50.044;15.938;2023-04-12T15:21:14;0.80;;;0.60;;
74465;SDS011;62916;50.044;15.938;2023-04-12T15:23:45;0.80;;;0.50;;
74465;SDS011;62916;50.044;15.938;2023-04-12T15:26:16;0.90;;;0.70;;
74465;SDS011;62916;50.044;15.938;2023-04-12T15:28:47;0.80;;;0.50;;